sensor_id;sensor_type;location;lat;lon;timestamp;P1;durP1;ratioP1;P2;durP2;ratioP2
11211;SDS011;5663;50.864;12.096;2023-09-19T00:00:24;2.10;;;1.90;;
11211;SDS011;5663;50.864;12.096;2023-09-19T00:03:01;5.03;;;2.07;;
11211;SDS011;5663;50.864;12.096;2023-09-19T00:05:37;5.70;;;2.20;;
11211;SDS011;5663;50.864;12.096;2023-09-19T00:08:22;3.67;;;2.03;;
11211;SDS011;5663;50.864;12.096;2023-09-19T00:11:00;6.40;;;2.10;;
11211;SDS011;5663;50.864;12.096;2023-09-19T00:13:47;6.23;;;2.50;;
11211;SDS011;5663;50.864;12.096;2023-09-19T00:16:22;2.67;;;1.90;;
11211;SDS011;5663;50.864;12.096;2023-09-19T00:18:59;4.17;;;2.10;;
11211;SDS011;5663;50.864;12.096;2023-09-19T00:21:41;2.70;;;2.20;;
11211;SDS011;5663;50.864;12.096;2023-09-19T00:24:18;6.67;;;1.97;;
11211;SDS011;5663;50.864;12.096;2023-09-19T00:27:05;2.20;;;2.00;;
11211;SDS011;5663;50.864;12.096;2023-09-19T00:29:39;4.43;;;2.10;;
11211;SDS011;5663;50.864;12.096;2023-09-19T00:32:13;3.17;;;2.10;;
11211;SDS011;5663;50.864;12.096;2023-09-19T00:34:57;4.10;;;2.00;;
11211;SDS011;5663;50.864;12.096;2023-09-19T00:37:30;3.70;;;2.07;;
11211;SDS011;5663;50.864;12.096;2023-09-19T00:43:53;6.80;;;2.27;;
11211;SDS011;5663;50.864;12.096;2023-09-19T00:46:42;2.60;;;1.93;;
11211;SDS011;5663;50.864;12.096;2023-09-19T00:49:21;5.30;;;1.97;;
11211;SDS011;5663;50.864;12.096;2023-09-19T00:52:05;2.37;;;1.80;;
11211;SDS011;5663;50.864;12.096;2023-09-19T00:54:41;2.90;;;2.10;;
11211;SDS011;5663;50.864;12.096;2023-09-19T00:57:25;7.17;;;2.17;;
11211;SDS011;5663;50.864;12.096;2023-09-19T00:59:59;4.10;;;1.70;;
11211;SDS011;5663;50.864;12.096;2023-09-19T01:02:52;2.17;;;1.60;;
11211;SDS011;5663;50.864;12.096;2023-09-19T01:05:27;1.83;;;1.73;;
11211;SDS011;5663;50.864;12.096;2023-09-19T01:08:14;3.00;;;1.80;;
11211;SDS011;5663;50.864;12.096;2023-09-19T01:10:50;2.47;;;1.70;;
11211;SDS011;5663;50.864;12.096;2023-09-19T01:13:26;4.87;;;1.90;;
11211;SDS011;5663;50.864;12.096;2023-09-19T01:16:03;1.63;;;1.53;;
11211;SDS011;5663;50.864;12.096;2023-09-19T01:18:51;1.80;;;1.70;;
11211;SDS011;5663;50.864;12.096;2023-09-19T01:21:54;2.10;;;1.40;;
11211;SDS011;5663;50.864;12.096;2023-09-19T01:24:41;1.70;;;1.60;;
11211;SDS011;5663;50.864;12.096;2023-09-19T01:28:05;2.07;;;1.87;;
11211;SDS011;5663;50.864;12.096;2023-09-19T01:30:59;5.13;;;1.80;;
11211;SDS011;5663;50.864;12.096;2023-09-19T01:33:57;2.40;;;1.70;;
11211;SDS011;5663;50.864;12.096;2023-09-19T01:36:50;4.47;;;1.87;;
11211;SDS011;5663;50.864;12.096;2023-09-19T01:39:31;2.43;;;2.00;;
11211;SDS011;5663;50.864;12.096;2023-09-19T01:42:12;3.53;;;1.63;;
11211;SDS011;5663;50.864;12.096;2023-09-19T01:45:18;1.57;;;1.43;;
11211;SDS011;5663;50.864;12.096;2023-09-19T01:48:05;3.10;;;1.50;;
11211;SDS011;5663;50.864;12.096;2023-09-19T01:50:52;4.67;;;1.53;;
11211;SDS011;5663;50.864;12.096;2023-09-19T01:53:27;3.53;;;1.70;;
11211;SDS011;5663;50.864;12.096;2023-09-19T01:56:21;1.67;;;1.37;;
11211;SDS011;5663;50.864;12.096;2023-09-19T01:59:13;3.23;;;1.57;;
11211;SDS011;5663;50.864;12.096;2023-09-19T03:48:59;2.93;;;1.77;;
11211;SDS011;5663;50.864;12.096;2023-09-19T03:51:37;4.33;;;1.63;;
11211;SDS011;5663;50.864;12.096;2023-09-19T03:54:08;1.83;;;1.70;;
11211;SDS011;5663;50.864;12.096;2023-09-19T03:56:43;3.30;;;1.90;;
11211;SDS011;5663;50.864;12.096;2023-09-19T03:59:18;5.80;;;1.87;;
11211;SDS011;5663;50.864;12.096;2023-09-19T04:01:50;3.23;;;2.07;;
11211;SDS011;5663;50.864;12.096;2023-09-19T04:04:42;1.90;;;1.67;;
11211;SDS011;5663;50.864;12.096;2023-09-19T04:07:18;4.07;;;2.00;;
11211;SDS011;5663;50.864;12.096;2023-09-19T04:09:48;2.37;;;1.70;;
11211;SDS011;5663;50.864;12.096;2023-09-19T04:16:19;2.10;;;1.80;;
11211;SDS011;5663;50.864;12.096;2023-09-19T04:18:54;2.40;;;2.00;;
11211;SDS011;5663;50.864;12.096;2023-09-19T04:21:27;2.53;;;1.90;;
11211;SDS011;5663;50.864;12.096;2023-09-19T04:24:04;2.23;;;2.00;;
11211;SDS011;5663;50.864;12.096;2023-09-19T04:26:39;2.30;;;1.70;;
11211;SDS011;5663;50.864;12.096;2023-09-19T04:29:10;1.70;;;1.50;;
11211;SDS011;5663;50.864;12.096;2023-09-19T04:31:41;2.27;;;1.87;;
11211;SDS011;5663;50.864;12.096;2023-09-19T04:34:19;4.23;;;1.80;;
11211;SDS011;5663;50.864;12.096;2023-09-19T04:36:58;3.27;;;1.80;;
11211;SDS011;5663;50.864;12.096;2023-09-19T04:39:35;4.60;;;2.00;;
11211;SDS011;5663;50.864;12.096;2023-09-19T04:42:04;4.87;;;2.00;;
11211;SDS011;5663;50.864;12.096;2023-09-19T04:44:32;1.97;;;1.70;;
11211;SDS011;5663;50.864;12.096;2023-09-19T04:47:03;2.20;;;1.70;;
11211;SDS011;5663;50.864;12.096;2023-09-19T04:49:31;3.30;;;1.50;;
11211;SDS011;5663;50.864;12.096;2023-09-19T04:52:05;2.77;;;1.57;;
11211;SDS011;5663;50.864;12.096;2023-09-19T04:54:57;3.37;;;1.70;;
11211;SDS011;5663;50.864;12.096;2023-09-19T04:57:27;4.17;;;1.67;;
11211;SDS011;5663;50.864;12.096;2023-09-19T05:00:17;1.80;;;1.70;;
11211;SDS011;5663;50.864;12.096;2023-09-19T05:02:49;2.07;;;1.97;;
11211;SDS011;5663;50.864;12.096;2023-09-19T05:05:18;2.47;;;1.90;;
11211;SDS011;5663;50.864;12.096;2023-09-19T05:07:51;4.97;;;2.30;;
11211;SDS011;5663;50.864;12.096;2023-09-19T05:10:51;2.17;;;1.80;;
11211;SDS011;5663;50.864;12.096;2023-09-19T05:16:58;3.50;;;1.63;;
11211;SDS011;5663;50.864;12.096;2023-09-19T05:19:26;3.03;;;1.93;;
11211;SDS011;5663;50.864;12.096;2023-09-19T05:21:54;1.97;;;1.70;;
11211;SDS011;5663;50.864;12.096;2023-09-19T05:24:24;3.87;;;1.70;;
11211;SDS011;5663;50.864;12.096;2023-09-19T05:26:52;2.13;;;1.93;;
11211;SDS011;5663;50.864;12.096;2023-09-19T05:29:28;2.30;;;1.67;;
11211;SDS011;5663;50.864;12.096;2023-09-19T05:32:04;3.33;;;2.00;;
11211;SDS011;5663;50.864;12.096;2023-09-19T05:34:48;2.87;;;1.57;;
11211;SDS011;5663;50.864;12.096;2023-09-19T05:37:19;1.70;;;1.60;;
11211;SDS011;5663;50.864;12.096;2023-09-19T05:39:52;2.53;;;1.93;;
11211;SDS011;5663;50.864;12.096;2023-09-19T05:42:40;1.80;;;1.70;;
11211;SDS011;5663;50.864;12.096;2023-09-19T05:45:21;2.87;;;1.83;;
11211;SDS011;5663;50.864;12.096;2023-09-19T05:48:27;3.67;;;1.97;;
11211;SDS011;5663;50.864;12.096;2023-09-19T05:51:12;6.03;;;2.40;;
11211;SDS011;5663;50.864;12.096;2023-09-19T05:57:04;4.30;;;1.90;;
11211;SDS011;5663;50.864;12.096;2023-09-19T05:59:36;2.90;;;1.90;;
11211;SDS011;5663;50.864;12.096;2023-09-19T06:02:10;3.33;;;2.00;;
11211;SDS011;5663;50.864;12.096;2023-09-19T06:04:39;3.17;;;2.27;;
11211;SDS011;5663;50.864;12.096;2023-09-19T06:07:11;4.33;;;2.40;;
11211;SDS011;5663;50.864;12.096;2023-09-19T06:09:40;2.73;;;2.47;;
11211;SDS011;5663;50.864;12.096;2023-09-19T06:12:11;2.53;;;2.30;;
11211;SDS011;5663;50.864;12.096;2023-09-19T06:14:44;2.70;;;2.33;;
11211;SDS011;5663;50.864;12.096;2023-09-19T06:17:13;6.00;;;2.33;;
11211;SDS011;5663;50.864;12.096;2023-09-19T06:19:43;6.37;;;2.20;;
11211;SDS011;5663;50.864;12.096;2023-09-19T06:22:14;4.77;;;1.90;;
11211;SDS011;5663;50.864;12.096;2023-09-19T06:24:46;4.00;;;1.80;;
11211;SDS011;5663;50.864;12.096;2023-09-19T06:27:16;2.87;;;1.90;;
11211;SDS011;5663;50.864;12.096;2023-09-19T06:29:47;3.47;;;2.47;;
11211;SDS011;5663;50.864;12.096;2023-09-19T06:32:16;3.53;;;2.13;;
11211;SDS011;5663;50.864;12.096;2023-09-19T06:34:51;2.13;;;1.90;;
11211;SDS011;5663;50.864;12.096;2023-09-19T06:37:23;3.60;;;2.10;;
11211;SDS011;5663;50.864;12.096;2023-09-19T06:39:54;3.40;;;2.30;;
11211;SDS011;5663;50.864;12.096;2023-09-19T06:42:24;3.17;;;2.53;;
11211;SDS011;5663;50.864;12.096;2023-09-19T06:44:58;2.30;;;2.10;;
11211;SDS011;5663;50.864;12.096;2023-09-19T06:47:26;2.63;;;2.30;;
11211;SDS011;5663;50.864;12.096;2023-09-19T06:49:54;2.20;;;1.60;;
11211;SDS011;5663;50.864;12.096;2023-09-19T06:52:24;2.20;;;1.90;;
11211;SDS011;5663;50.864;12.096;2023-09-19T06:54:53;2.67;;;2.10;;
11211;SDS011;5663;50.864;12.096;2023-09-19T06:57:24;3.77;;;1.77;;
11211;SDS011;5663;50.864;12.096;2023-09-19T07:00:21;1.80;;;1.70;;
11211;SDS011;5663;50.864;12.096;2023-09-19T07:03:07;2.00;;;1.53;;
11211;SDS011;5663;50.864;12.096;2023-09-19T07:05:49;2.20;;;1.47;;
11211;SDS011;5663;50.864;12.096;2023-09-19T07:08:30;2.13;;;1.50;;
11211;SDS011;5663;50.864;12.096;2023-09-19T07:10:59;1.30;;;1.20;;
11211;SDS011;5663;50.864;12.096;2023-09-19T07:13:32;1.37;;;1.27;;
11211;SDS011;5663;50.864;12.096;2023-09-19T07:16:00;4.30;;;1.83;;
11211;SDS011;5663;50.864;12.096;2023-09-19T07:18:28;2.43;;;1.50;;
11211;SDS011;5663;50.864;12.096;2023-09-19T07:21:04;1.70;;;1.47;;
11211;SDS011;5663;50.864;12.096;2023-09-19T07:23:42;1.50;;;1.33;;
11211;SDS011;5663;50.864;12.096;2023-09-19T07:26:15;2.03;;;1.40;;
11211;SDS011;5663;50.864;12.096;2023-09-19T07:28:47;1.97;;;1.50;;
11211;SDS011;5663;50.864;12.096;2023-09-19T07:31:23;3.33;;;1.40;;
11211;SDS011;5663;50.864;12.096;2023-09-19T07:33:51;2.80;;;1.70;;
11211;SDS011;5663;50.864;12.096;2023-09-19T07:36:33;1.53;;;1.27;;
11211;SDS011;5663;50.864;12.096;2023-09-19T07:39:03;3.87;;;1.40;;
11211;SDS011;5663;50.864;12.096;2023-09-19T07:44:45;2.67;;;1.23;;
11211;SDS011;5663;50.864;12.096;2023-09-19T07:47:18;1.67;;;1.50;;
11211;SDS011;5663;50.864;12.096;2023-09-19T07:49:51;3.77;;;1.60;;
11211;SDS011;5663;50.864;12.096;2023-09-19T07:55:25;2.63;;;1.30;;
11211;SDS011;5663;50.864;12.096;2023-09-19T07:58:00;3.10;;;1.40;;
11211;SDS011;5663;50.864;12.096;2023-09-19T08:00:31;3.17;;;1.27;;
11211;SDS011;5663;50.864;12.096;2023-09-19T08:03:01;2.30;;;1.20;;
11211;SDS011;5663;50.864;12.096;2023-09-19T08:05:32;1.90;;;1.20;;
11211;SDS011;5663;50.864;12.096;2023-09-19T08:08:01;1.30;;;1.20;;
11211;SDS011;5663;50.864;12.096;2023-09-19T08:10:37;2.97;;;1.30;;
11211;SDS011;5663;50.864;12.096;2023-09-19T08:13:08;1.93;;;1.27;;
11211;SDS011;5663;50.864;12.096;2023-09-19T08:15:44;4.33;;;1.60;;
11211;SDS011;5663;50.864;12.096;2023-09-19T08:18:16;1.30;;;1.20;;
11211;SDS011;5663;50.864;12.096;2023-09-19T08:20:49;2.20;;;1.13;;
11211;SDS011;5663;50.864;12.096;2023-09-19T08:23:17;1.40;;;1.30;;
11211;SDS011;5663;50.864;12.096;2023-09-19T08:26:18;2.23;;;1.20;;
11211;SDS011;5663;50.864;12.096;2023-09-19T08:28:48;1.20;;;1.03;;
11211;SDS011;5663;50.864;12.096;2023-09-19T08:31:18;1.40;;;1.10;;
11211;SDS011;5663;50.864;12.096;2023-09-19T08:33:47;1.80;;;1.17;;
11211;SDS011;5663;50.864;12.096;2023-09-19T08:36:17;2.77;;;1.20;;
11211;SDS011;5663;50.864;12.096;2023-09-19T08:38:45;4.33;;;1.20;;
11211;SDS011;5663;50.864;12.096;2023-09-19T08:41:31;1.70;;;1.07;;
11211;SDS011;5663;50.864;12.096;2023-09-19T08:44:02;1.90;;;1.20;;
11211;SDS011;5663;50.864;12.096;2023-09-19T08:46:40;1.40;;;1.20;;
11211;SDS011;5663;50.864;12.096;2023-09-19T08:49:14;2.27;;;1.13;;
11211;SDS011;5663;50.864;12.096;2023-09-19T08:52:00;1.17;;;0.90;;
11211;SDS011;5663;50.864;12.096;2023-09-19T08:54:58;2.67;;;1.23;;
11211;SDS011;5663;50.864;12.096;2023-09-19T08:57:33;1.63;;;1.17;;
11211;SDS011;5663;50.864;12.096;2023-09-19T09:00:06;2.83;;;1.20;;
11211;SDS011;5663;50.864;12.096;2023-09-19T09:02:43;1.67;;;1.10;;
11211;SDS011;5663;50.864;12.096;2023-09-19T09:05:14;2.57;;;1.30;;
11211;SDS011;5663;50.864;12.096;2023-09-19T09:07:49;1.10;;;1.00;;
11211;SDS011;5663;50.864;12.096;2023-09-19T09:10:22;1.53;;;1.37;;
11211;SDS011;5663;50.864;12.096;2023-09-19T09:12:54;1.03;;;0.80;;
11211;SDS011;5663;50.864;12.096;2023-09-19T09:15:22;1.60;;;1.20;;
11211;SDS011;5663;50.864;12.096;2023-09-19T09:17:53;2.00;;;1.20;;
11211;SDS011;5663;50.864;12.096;2023-09-19T09:20:22;1.37;;;1.27;;
11211;SDS011;5663;50.864;12.096;2023-09-19T09:22:52;2.40;;;1.13;;
11211;SDS011;5663;50.864;12.096;2023-09-19T09:25:50;1.75;;;1.17;;
11211;SDS011;5663;50.864;12.096;2023-09-19T09:28:52;1.98;;;1.30;;
11211;SDS011;5663;50.864;12.096;2023-09-19T09:31:23;3.08;;;1.30;;
11211;SDS011;5663;50.864;12.096;2023-09-19T09:33:58;1.52;;;1.25;;
11211;SDS011;5663;50.864;12.096;2023-09-19T09:36:35;1.30;;;1.17;;
11211;SDS011;5663;50.864;12.096;2023-09-19T09:39:09;1.58;;;1.17;;
11211;SDS011;5663;50.864;12.096;2023-09-19T09:42:04;2.10;;;1.23;;
11211;SDS011;5663;50.864;12.096;2023-09-19T09:44:35;2.47;;;1.10;;
11211;SDS011;5663;50.864;12.096;2023-09-19T09:47:07;2.22;;;1.20;;
11211;SDS011;5663;50.864;12.096;2023-09-19T09:49:59;2.38;;;1.35;;
11211;SDS011;5663;50.864;12.096;2023-09-19T09:52:47;1.30;;;1.00;;
11211;SDS011;5663;50.864;12.096;2023-09-19T09:55:19;1.80;;;1.08;;
11211;SDS011;5663;50.864;12.096;2023-09-19T09:57:48;2.33;;;1.23;;
11211;SDS011;5663;50.864;12.096;2023-09-19T10:00:52;1.60;;;1.10;;
11211;SDS011;5663;50.864;12.096;2023-09-19T10:03:32;1.88;;;1.20;;
11211;SDS011;5663;50.864;12.096;2023-09-19T10:06:09;6.22;;;1.35;;
11211;SDS011;5663;50.864;12.096;2023-09-19T10:09:04;1.67;;;1.08;;
11211;SDS011;5663;50.864;12.096;2023-09-19T10:12:05;2.70;;;1.20;;
11211;SDS011;5663;50.864;12.096;2023-09-19T10:14:44;2.40;;;1.13;;
11211;SDS011;5663;50.864;12.096;2023-09-19T10:17:13;1.40;;;1.10;;
11211;SDS011;5663;50.864;12.096;2023-09-19T10:19:56;2.75;;;1.20;;
11211;SDS011;5663;50.864;12.096;2023-09-19T10:22:37;1.95;;;1.42;;
11211;SDS011;5663;50.864;12.096;2023-09-19T10:25:19;1.52;;;1.20;;
11211;SDS011;5663;50.864;12.096;2023-09-19T10:28:12;3.80;;;1.25;;
11211;SDS011;5663;50.864;12.096;2023-09-19T10:30:53;1.42;;;1.20;;
11211;SDS011;5663;50.864;12.096;2023-09-19T10:33:24;1.67;;;1.20;;
11211;SDS011;5663;50.864;12.096;2023-09-19T10:36:04;2.63;;;1.65;;
11211;SDS011;5663;50.864;12.096;2023-09-19T10:44:55;2.63;;;1.25;;
11211;SDS011;5663;50.864;12.096;2023-09-19T10:47:34;3.80;;;1.35;;
11211;SDS011;5663;50.864;12.096;2023-09-19T10:50:04;1.52;;;1.30;;
11211;SDS011;5663;50.864;12.096;2023-09-19T10:52:41;2.92;;;1.35;;
11211;SDS011;5663;50.864;12.096;2023-09-19T10:55:15;3.03;;;1.33;;
11211;SDS011;5663;50.864;12.096;2023-09-19T10:57:47;2.97;;;1.40;;
11211;SDS011;5663;50.864;12.096;2023-09-19T11:00:21;3.00;;;1.50;;
11211;SDS011;5663;50.864;12.096;2023-09-19T11:03:18;2.17;;;1.70;;
11211;SDS011;5663;50.864;12.096;2023-09-19T11:06:00;3.55;;;1.35;;
11211;SDS011;5663;50.864;12.096;2023-09-19T11:08:57;2.28;;;1.23;;
11211;SDS011;5663;50.864;12.096;2023-09-19T11:11:44;1.30;;;1.20;;
11211;SDS011;5663;50.864;12.096;2023-09-19T11:14:30;4.55;;;1.42;;
11211;SDS011;5663;50.864;12.096;2023-09-19T11:20:20;2.45;;;1.50;;
11211;SDS011;5663;50.864;12.096;2023-09-19T11:26:01;2.17;;;1.63;;
11211;SDS011;5663;50.864;12.096;2023-09-19T11:28:51;2.10;;;1.40;;
11211;SDS011;5663;50.864;12.096;2023-09-19T11:31:56;2.00;;;1.25;;
11211;SDS011;5663;50.864;12.096;2023-09-19T11:34:45;2.95;;;1.73;;
11211;SDS011;5663;50.864;12.096;2023-09-19T11:40:36;2.78;;;1.80;;
11211;SDS011;5663;50.864;12.096;2023-09-19T11:46:07;1.90;;;1.70;;
11211;SDS011;5663;50.864;12.096;2023-09-19T11:48:41;5.13;;;1.88;;
11211;SDS011;5663;50.864;12.096;2023-09-19T11:51:12;1.73;;;1.50;;
11211;SDS011;5663;50.864;12.096;2023-09-19T11:53:51;2.90;;;1.80;;
11211;SDS011;5663;50.864;12.096;2023-09-19T11:56:20;4.95;;;1.90;;
11211;SDS011;5663;50.864;12.096;2023-09-19T11:58:50;2.30;;;1.92;;
11211;SDS011;5663;50.864;12.096;2023-09-19T12:01:22;2.10;;;1.50;;
11211;SDS011;5663;50.864;12.096;2023-09-19T12:03:59;4.45;;;1.73;;
11211;SDS011;5663;50.864;12.096;2023-09-19T12:06:41;4.35;;;1.77;;
11211;SDS011;5663;50.864;12.096;2023-09-19T12:09:15;3.22;;;1.60;;
11211;SDS011;5663;50.864;12.096;2023-09-19T12:11:49;2.63;;;1.83;;
11211;SDS011;5663;50.864;12.096;2023-09-19T12:14:23;2.92;;;1.80;;
11211;SDS011;5663;50.864;12.096;2023-09-19T12:16:53;2.33;;;1.70;;
11211;SDS011;5663;50.864;12.096;2023-09-19T12:19:24;2.05;;;1.70;;
11211;SDS011;5663;50.864;12.096;2023-09-19T12:21:57;2.30;;;1.63;;
11211;SDS011;5663;50.864;12.096;2023-09-19T12:24:30;2.97;;;1.95;;
11211;SDS011;5663;50.864;12.096;2023-09-19T12:27:22;4.45;;;1.63;;
11211;SDS011;5663;50.864;12.096;2023-09-19T12:29:52;2.80;;;1.90;;
11211;SDS011;5663;50.864;12.096;2023-09-19T12:32:33;2.50;;;2.28;;
11211;SDS011;5663;50.864;12.096;2023-09-19T12:35:26;3.72;;;1.92;;
11211;SDS011;5663;50.864;12.096;2023-09-19T12:37:55;2.28;;;1.92;;
11211;SDS011;5663;50.864;12.096;2023-09-19T12:44:02;2.70;;;1.70;;
11211;SDS011;5663;50.864;12.096;2023-09-19T12:46:44;3.75;;;1.80;;
11211;SDS011;5663;50.864;12.096;2023-09-19T12:49:20;2.80;;;2.20;;
11211;SDS011;5663;50.864;12.096;2023-09-19T12:51:59;2.15;;;1.95;;
11211;SDS011;5663;50.864;12.096;2023-09-19T12:54:48;4.28;;;1.80;;
11211;SDS011;5663;50.864;12.096;2023-09-19T12:57:23;3.47;;;1.98;;
11211;SDS011;5663;50.864;12.096;2023-09-19T13:00:03;5.57;;;2.15;;
11211;SDS011;5663;50.864;12.096;2023-09-19T13:11:35;3.75;;;2.03;;
11211;SDS011;5663;50.864;12.096;2023-09-19T13:17:35;3.55;;;1.85;;
11211;SDS011;5663;50.864;12.096;2023-09-19T13:21:05;8.98;;;2.13;;
11211;SDS011;5663;50.864;12.096;2023-09-19T13:30:13;3.10;;;1.98;;
11211;SDS011;5663;50.864;12.096;2023-09-19T13:32:48;2.88;;;2.10;;
11211;SDS011;5663;50.864;12.096;2023-09-19T13:35:20;2.97;;;2.10;;
11211;SDS011;5663;50.864;12.096;2023-09-19T13:38:11;6.25;;;2.42;;
11211;SDS011;5663;50.864;12.096;2023-09-19T13:40:53;4.07;;;2.30;;
11211;SDS011;5663;50.864;12.096;2023-09-19T13:43:26;4.65;;;2.13;;
11211;SDS011;5663;50.864;12.096;2023-09-19T13:45:58;5.18;;;2.50;;
11211;SDS011;5663;50.864;12.096;2023-09-19T13:52:33;7.47;;;2.40;;
11211;SDS011;5663;50.864;12.096;2023-09-19T13:55:31;3.38;;;2.50;;
11211;SDS011;5663;50.864;12.096;2023-09-19T13:58:00;2.22;;;1.85;;
11211;SDS011;5663;50.864;12.096;2023-09-19T14:03:50;2.28;;;1.80;;
11211;SDS011;5663;50.864;12.096;2023-09-19T14:06:27;2.55;;;2.10;;
11211;SDS011;5663;50.864;12.096;2023-09-19T14:09:03;4.40;;;2.20;;
11211;SDS011;5663;50.864;12.096;2023-09-19T14:16:37;3.03;;;2.40;;
11211;SDS011;5663;50.864;12.096;2023-09-19T14:19:15;5.82;;;2.10;;
11211;SDS011;5663;50.864;12.096;2023-09-19T14:21:55;4.18;;;2.42;;
11211;SDS011;5663;50.864;12.096;2023-09-19T14:25:01;3.00;;;2.55;;
11211;SDS011;5663;50.864;12.096;2023-09-19T14:27:37;3.15;;;2.35;;
11211;SDS011;5663;50.864;12.096;2023-09-19T14:30:17;3.50;;;2.45;;
11211;SDS011;5663;50.864;12.096;2023-09-19T14:32:50;4.55;;;2.58;;
11211;SDS011;5663;50.864;12.096;2023-09-19T14:43:01;3.00;;;2.40;;
11211;SDS011;5663;50.864;12.096;2023-09-19T14:46:01;2.92;;;2.47;;
11211;SDS011;5663;50.864;12.096;2023-09-19T14:49:07;3.00;;;2.15;;
11211;SDS011;5663;50.864;12.096;2023-09-19T14:51:37;4.47;;;2.45;;
11211;SDS011;5663;50.864;12.096;2023-09-19T14:54:10;3.78;;;2.35;;
11211;SDS011;5663;50.864;12.096;2023-09-19T14:56:57;3.83;;;2.38;;
11211;SDS011;5663;50.864;12.096;2023-09-19T15:00:05;3.42;;;2.60;;
11211;SDS011;5663;50.864;12.096;2023-09-19T15:02:55;4.40;;;2.30;;
11211;SDS011;5663;50.864;12.096;2023-09-19T15:05:28;5.32;;;2.50;;
11211;SDS011;5663;50.864;12.096;2023-09-19T15:07:56;4.57;;;2.65;;
11211;SDS011;5663;50.864;12.096;2023-09-19T15:10:33;5.40;;;2.50;;
11211;SDS011;5663;50.864;12.096;2023-09-19T15:13:06;4.57;;;2.53;;
11211;SDS011;5663;50.864;12.096;2023-09-19T15:15:34;3.53;;;2.58;;
11211;SDS011;5663;50.864;12.096;2023-09-19T15:18:03;4.35;;;2.40;;
11211;SDS011;5663;50.864;12.096;2023-09-19T15:20:43;4.32;;;2.47;;
11211;SDS011;5663;50.864;12.096;2023-09-19T15:23:13;5.15;;;2.53;;
11211;SDS011;5663;50.864;12.096;2023-09-19T15:25:49;3.90;;;2.58;;
11211;SDS011;5663;50.864;12.096;2023-09-19T15:28:35;7.25;;;2.75;;
11211;SDS011;5663;50.864;12.096;2023-09-19T15:31:07;5.40;;;2.88;;
11211;SDS011;5663;50.864;12.096;2023-09-19T15:33:40;4.38;;;2.60;;
11211;SDS011;5663;50.864;12.096;2023-09-19T15:36:10;4.45;;;2.53;;
11211;SDS011;5663;50.864;12.096;2023-09-19T15:39:04;5.72;;;2.35;;
11211;SDS011;5663;50.864;12.096;2023-09-19T15:41:37;3.38;;;2.28;;
11211;SDS011;5663;50.864;12.096;2023-09-19T15:44:12;6.47;;;2.70;;
11211;SDS011;5663;50.864;12.096;2023-09-19T15:46:59;5.90;;;2.40;;
11211;SDS011;5663;50.864;12.096;2023-09-19T15:49:31;5.07;;;2.58;;
11211;SDS011;5663;50.864;12.096;2023-09-19T15:52:06;2.78;;;2.20;;
11211;SDS011;5663;50.864;12.096;2023-09-19T15:54:54;4.50;;;2.40;;
11211;SDS011;5663;50.864;12.096;2023-09-19T15:57:25;6.63;;;2.80;;
11211;SDS011;5663;50.864;12.096;2023-09-19T15:59:54;5.10;;;2.78;;
11211;SDS011;5663;50.864;12.096;2023-09-19T16:02:23;4.32;;;2.47;;
11211;SDS011;5663;50.864;12.096;2023-09-19T16:04:54;6.20;;;2.60;;
11211;SDS011;5663;50.864;12.096;2023-09-19T16:07:24;4.65;;;2.50;;
11211;SDS011;5663;50.864;12.096;2023-09-19T16:10:16;5.97;;;2.75;;
11211;SDS011;5663;50.864;12.096;2023-09-19T16:13:02;4.72;;;2.70;;
11211;SDS011;5663;50.864;12.096;2023-09-19T16:15:32;6.25;;;3.05;;
11211;SDS011;5663;50.864;12.096;2023-09-19T16:18:00;4.72;;;2.67;;
11211;SDS011;5663;50.864;12.096;2023-09-19T16:20:35;5.47;;;3.30;;
11211;SDS011;5663;50.864;12.096;2023-09-19T16:23:06;4.55;;;2.65;;
11211;SDS011;5663;50.864;12.096;2023-09-19T16:25:38;5.38;;;2.80;;
11211;SDS011;5663;50.864;12.096;2023-09-19T16:28:24;5.80;;;3.38;;
11211;SDS011;5663;50.864;12.096;2023-09-19T16:30:52;5.80;;;3.15;;
11211;SDS011;5663;50.864;12.096;2023-09-19T16:33:46;5.38;;;2.97;;
11211;SDS011;5663;50.864;12.096;2023-09-19T16:36:14;7.53;;;2.30;;
11211;SDS011;5663;50.864;12.096;2023-09-19T16:38:47;3.30;;;2.50;;
11211;SDS011;5663;50.864;12.096;2023-09-19T16:41:17;4.30;;;2.70;;
11211;SDS011;5663;50.864;12.096;2023-09-19T16:43:51;3.03;;;2.22;;
11211;SDS011;5663;50.864;12.096;2023-09-19T16:46:35;3.13;;;2.33;;
11211;SDS011;5663;50.864;12.096;2023-09-19T16:49:06;2.33;;;1.98;;
11211;SDS011;5663;50.864;12.096;2023-09-19T16:51:35;4.28;;;2.33;;
11211;SDS011;5663;50.864;12.096;2023-09-19T16:54:11;6.43;;;2.50;;
11211;SDS011;5663;50.864;12.096;2023-09-19T16:56:49;4.75;;;2.10;;
11211;SDS011;5663;50.864;12.096;2023-09-19T16:59:30;5.72;;;2.17;;
11211;SDS011;5663;50.864;12.096;2023-09-19T17:01:58;4.63;;;1.98;;
11211;SDS011;5663;50.864;12.096;2023-09-19T17:04:26;4.05;;;2.25;;
11211;SDS011;5663;50.864;12.096;2023-09-19T17:06:55;3.53;;;2.15;;
11211;SDS011;5663;50.864;12.096;2023-09-19T17:09:28;3.55;;;2.30;;
11211;SDS011;5663;50.864;12.096;2023-09-19T17:12:05;3.95;;;2.22;;
11211;SDS011;5663;50.864;12.096;2023-09-19T17:14:42;3.20;;;1.85;;
11211;SDS011;5663;50.864;12.096;2023-09-19T17:17:10;3.13;;;2.15;;
11211;SDS011;5663;50.864;12.096;2023-09-19T17:19:38;3.63;;;2.40;;
11211;SDS011;5663;50.864;12.096;2023-09-19T17:22:06;5.38;;;2.05;;
11211;SDS011;5663;50.864;12.096;2023-09-19T17:24:40;2.55;;;2.00;;
11211;SDS011;5663;50.864;12.096;2023-09-19T17:27:36;2.63;;;1.90;;
11211;SDS011;5663;50.864;12.096;2023-09-19T17:30:11;3.88;;;2.30;;
11211;SDS011;5663;50.864;12.096;2023-09-19T17:32:42;4.50;;;2.17;;
11211;SDS011;5663;50.864;12.096;2023-09-19T17:35:11;7.73;;;2.33;;
11211;SDS011;5663;50.864;12.096;2023-09-19T17:37:44;2.53;;;1.90;;
11211;SDS011;5663;50.864;12.096;2023-09-19T17:40:28;3.73;;;2.50;;
11211;SDS011;5663;50.864;12.096;2023-09-19T17:42:56;3.20;;;1.70;;
11211;SDS011;5663;50.864;12.096;2023-09-19T17:45:25;3.80;;;2.10;;
11211;SDS011;5663;50.864;12.096;2023-09-19T17:47:57;2.47;;;1.73;;
11211;SDS011;5663;50.864;12.096;2023-09-19T17:51:01;4.40;;;2.13;;
11211;SDS011;5663;50.864;12.096;2023-09-19T17:54:09;3.47;;;2.10;;
11211;SDS011;5663;50.864;12.096;2023-09-19T17:57:20;6.13;;;2.07;;
11211;SDS011;5663;50.864;12.096;2023-09-19T17:59:52;3.40;;;2.10;;
11211;SDS011;5663;50.864;12.096;2023-09-19T18:06:11;2.93;;;2.20;;
11211;SDS011;5663;50.864;12.096;2023-09-19T18:08:44;4.73;;;2.67;;
11211;SDS011;5663;50.864;12.096;2023-09-19T18:17:56;4.47;;;1.93;;
11211;SDS011;5663;50.864;12.096;2023-09-19T18:20:26;5.57;;;2.30;;
11211;SDS011;5663;50.864;12.096;2023-09-19T18:26:29;4.40;;;2.23;;
11211;SDS011;5663;50.864;12.096;2023-09-19T18:29:01;5.43;;;2.03;;
11211;SDS011;5663;50.864;12.096;2023-09-19T18:31:49;3.93;;;2.33;;
11211;SDS011;5663;50.864;12.096;2023-09-19T18:34:25;3.80;;;2.33;;
11211;SDS011;5663;50.864;12.096;2023-09-19T18:37:10;3.33;;;1.93;;
11211;SDS011;5663;50.864;12.096;2023-09-19T18:39:38;3.33;;;2.33;;
11211;SDS011;5663;50.864;12.096;2023-09-19T18:42:08;3.80;;;1.97;;
11211;SDS011;5663;50.864;12.096;2023-09-19T18:44:44;3.87;;;2.13;;
11211;SDS011;5663;50.864;12.096;2023-09-19T18:47:19;4.43;;;2.50;;
11211;SDS011;5663;50.864;12.096;2023-09-19T18:49:56;5.67;;;2.50;;
11211;SDS011;5663;50.864;12.096;2023-09-19T18:52:24;4.87;;;2.60;;
11211;SDS011;5663;50.864;12.096;2023-09-19T18:54:54;2.70;;;2.10;;
11211;SDS011;5663;50.864;12.096;2023-09-19T18:57:23;3.03;;;2.00;;
11211;SDS011;5663;50.864;12.096;2023-09-19T18:59:51;4.87;;;2.20;;
11211;SDS011;5663;50.864;12.096;2023-09-19T19:02:25;3.83;;;2.37;;
11211;SDS011;5663;50.864;12.096;2023-09-19T19:05:19;3.33;;;2.17;;
11211;SDS011;5663;50.864;12.096;2023-09-19T19:07:47;2.90;;;2.00;;
11211;SDS011;5663;50.864;12.096;2023-09-19T19:10:16;4.73;;;2.50;;
11211;SDS011;5663;50.864;12.096;2023-09-19T19:12:51;4.30;;;2.30;;